sensor_id;sensor_type;location;lat;lon;timestamp;pressure;altitude;pressure_sealevel;temperature;humidity
8398;BME280;4236;54.504;9.588;2024-01-15T00:02:09;98879.00;;;1.27;100.00
8398;BME280;4236;54.504;9.588;2024-01-15T00:04:40;98866.41;;;1.23;100.00
8398;BME280;4236;54.504;9.588;2024-01-15T00:07:08;98871.22;;;1.19;100.00
8398;BME280;4236;54.504;9.588;2024-01-15T00:09:36;98858.81;;;1.13;100.00
8398;BME280;4236;54.504;9.588;2024-01-15T00:12:06;98860.00;;;1.10;100.00
8398;BME280;4236;54.504;9.588;2024-01-15T00:14:34;98865.25;;;1.10;100.00
8398;BME280;4236;54.504;9.588;2024-01-15T00:17:02;98879.63;;;1.15;100.00
8398;BME280;4236;54.504;9.588;2024-01-15T00:19:30;98864.59;;;1.23;100.00
8398;BME280;4236;54.504;9.588;2024-01-15T00:21:58;98873.19;;;1.32;100.00
8398;BME280;4236;54.504;9.588;2024-01-15T00:24:26;98862.75;;;1.38;100.00
8398;BME280;4236;54.504;9.588;2024-01-15T00:26:54;98856.16;;;1.42;100.00
8398;BME280;4236;54.504;9.588;2024-01-15T00:29:24;98844.66;;;1.43;100.00
8398;BME280;4236;54.504;9.588;2024-01-15T00:31:52;98853.97;;;1.46;100.00
8398;BME280;4236;54.504;9.588;2024-01-15T00:34:19;98848.16;;;1.50;100.00
8398;BME280;4236;54.504;9.588;2024-01-15T00:36:47;98839.91;;;1.53;100.00
8398;BME280;4236;54.504;9.588;2024-01-15T00:39:15;98831.66;;;1.56;100.00
8398;BME280;4236;54.504;9.588;2024-01-15T00:41:43;98840.97;;;1.59;100.00
8398;BME280;4236;54.504;9.588;2024-01-15T00:44:11;98831.91;;;1.61;100.00
8398;BME280;4236;54.504;9.588;2024-01-15T00:46:44;98844.94;;;1.70;100.00
8398;BME280;4236;54.504;9.588;2024-01-15T00:49:13;98828.44;;;1.76;100.00
8398;BME280;4236;54.504;9.588;2024-01-15T00:51:41;98817.19;;;1.82;100.00
8398;BME280;4236;54.504;9.588;2024-01-15T00:54:09;98837.47;;;1.88;100.00
8398;BME280;4236;54.504;9.588;2024-01-15T00:56:38;98829.19;;;1.91;100.00
8398;BME280;4236;54.504;9.588;2024-01-15T00:59:06;98824.72;;;1.91;100.00
8398;BME280;4236;54.504;9.588;2024-01-15T01:01:36;98827.56;;;1.90;100.00
8398;BME280;4236;54.504;9.588;2024-01-15T01:04:06;98825.75;;;1.90;100.00
8398;BME280;4236;54.504;9.588;2024-01-15T01:06:34;98824.13;;;1.89;100.00
8398;BME280;4236;54.504;9.588;2024-01-15T01:09:01;98816.84;;;1.91;100.00
8398;BME280;4236;54.504;9.588;2024-01-15T01:11:29;98824.31;;;1.88;100.00
8398;BME280;4236;54.504;9.588;2024-01-15T01:13:57;98825.31;;;1.87;100.00
8398;BME280;4236;54.504;9.588;2024-01-15T01:16:25;98826.56;;;1.91;100.00
8398;BME280;4236;54.504;9.588;2024-01-15T01:18:52;98822.47;;;1.88;100.00
8398;BME280;4236;54.504;9.588;2024-01-15T01:21:22;98828.75;;;1.87;100.00
8398;BME280;4236;54.504;9.588;2024-01-15T01:23:49;98827.50;;;1.83;100.00
8398;BME280;4236;54.504;9.588;2024-01-15T01:26:17;98818.78;;;1.83;100.00
8398;BME280;4236;54.504;9.588;2024-01-15T01:28:45;98804.03;;;1.82;100.00
8398;BME280;4236;54.504;9.588;2024-01-15T01:31:13;98810.72;;;1.84;100.00
8398;BME280;4236;54.504;9.588;2024-01-15T01:33:41;98818.25;;;1.87;100.00
8398;BME280;4236;54.504;9.588;2024-01-15T01:36:09;98816.00;;;1.84;100.00
8398;BME280;4236;54.504;9.588;2024-01-15T01:38:39;98821.25;;;1.84;100.00
8398;BME280;4236;54.504;9.588;2024-01-15T01:41:07;98815.16;;;1.84;100.00
8398;BME280;4236;54.504;9.588;2024-01-15T01:43:35;98813.81;;;1.88;100.00
8398;BME280;4236;54.504;9.588;2024-01-15T01:46:03;98809.72;;;1.85;100.00
8398;BME280;4236;54.504;9.588;2024-01-15T01:48:32;98799.84;;;1.87;100.00
8398;BME280;4236;54.504;9.588;2024-01-15T01:51:02;98797.00;;;1.89;100.00
8398;BME280;4236;54.504;9.588;2024-01-15T01:53:32;98804.91;;;1.89;100.00
8398;BME280;4236;54.504;9.588;2024-01-15T01:56:03;98802.28;;;1.89;100.00
8398;BME280;4236;54.504;9.588;2024-01-15T01:58:32;98809.72;;;1.85;100.00
8398;BME280;4236;54.504;9.588;2024-01-15T02:01:00;98798.78;;;1.82;100.00
8398;BME280;4236;54.504;9.588;2024-01-15T02:03:30;98791.31;;;1.85;100.00
8398;BME280;4236;54.504;9.588;2024-01-15T02:05:59;98807.91;;;1.86;100.00
8398;BME280;4236;54.504;9.588;2024-01-15T02:08:27;98805.91;;;1.88;100.00
8398;BME280;4236;54.504;9.588;2024-01-15T02:10:55;98816.06;;;1.91;100.00
8398;BME280;4236;54.504;9.588;2024-01-15T02:13:24;98794.66;;;1.94;100.00
8398;BME280;4236;54.504;9.588;2024-01-15T02:15:52;98805.28;;;1.86;100.00
8398;BME280;4236;54.504;9.588;2024-01-15T02:18:19;98823.81;;;1.78;100.00
8398;BME280;4236;54.504;9.588;2024-01-15T02:20:47;98814.59;;;1.67;100.00
8398;BME280;4236;54.504;9.588;2024-01-15T02:23:16;98816.50;;;1.58;100.00
8398;BME280;4236;54.504;9.588;2024-01-15T02:25:46;98817.44;;;1.51;100.00
8398;BME280;4236;54.504;9.588;2024-01-15T02:28:15;98816.03;;;1.48;100.00
8398;BME280;4236;54.504;9.588;2024-01-15T02:30:43;98817.38;;;1.44;100.00
8398;BME280;4236;54.504;9.588;2024-01-15T02:33:12;98818.81;;;1.47;100.00
8398;BME280;4236;54.504;9.588;2024-01-15T02:35:40;98822.25;;;1.47;100.00
8398;BME280;4236;54.504;9.588;2024-01-15T02:38:08;98816.25;;;1.53;100.00
8398;BME280;4236;54.504;9.588;2024-01-15T02:40:38;98818.72;;;1.55;100.00
8398;BME280;4236;54.504;9.588;2024-01-15T02:43:06;98823.41;;;1.59;100.00
8398;BME280;4236;54.504;9.588;2024-01-15T02:45:33;98830.09;;;1.62;100.00
8398;BME280;4236;54.504;9.588;2024-01-15T02:48:01;98824.75;;;1.55;100.00
8398;BME280;4236;54.504;9.588;2024-01-15T02:50:29;98841.91;;;1.51;100.00
8398;BME280;4236;54.504;9.588;2024-01-15T02:52:57;98836.00;;;1.49;100.00
8398;BME280;4236;54.504;9.588;2024-01-15T02:55:24;98857.44;;;1.46;100.00
8398;BME280;4236;54.504;9.588;2024-01-15T02:57:53;98852.25;;;1.38;100.00
8398;BME280;4236;54.504;9.588;2024-01-15T03:00:21;98851.00;;;1.34;100.00
8398;BME280;4236;54.504;9.588;2024-01-15T03:02:50;98859.44;;;1.30;100.00
8398;BME280;4236;54.504;9.588;2024-01-15T03:05:18;98853.34;;;1.29;100.00
8398;BME280;4236;54.504;9.588;2024-01-15T03:07:46;98856.19;;;1.28;100.00
8398;BME280;4236;54.504;9.588;2024-01-15T03:10:14;98842.84;;;1.29;100.00
8398;BME280;4236;54.504;9.588;2024-01-15T03:12:42;98847.13;;;1.30;100.00
8398;BME280;4236;54.504;9.588;2024-01-15T03:15:11;98872.66;;;1.36;100.00
8398;BME280;4236;54.504;9.588;2024-01-15T03:17:41;98862.41;;;1.41;100.00
8398;BME280;4236;54.504;9.588;2024-01-15T03:20:10;98863.66;;;1.45;100.00
8398;BME280;4236;54.504;9.588;2024-01-15T03:22:38;98864.28;;;1.47;100.00
8398;BME280;4236;54.504;9.588;2024-01-15T03:25:06;98870.16;;;1.49;100.00
8398;BME280;4236;54.504;9.588;2024-01-15T03:27:34;98858.50;;;1.52;100.00
8398;BME280;4236;54.504;9.588;2024-01-15T03:30:02;98861.91;;;1.52;100.00
8398;BME280;4236;54.504;9.588;2024-01-15T03:32:31;98864.16;;;1.55;100.00
8398;BME280;4236;54.504;9.588;2024-01-15T03:34:59;98860.56;;;1.56;100.00
8398;BME280;4236;54.504;9.588;2024-01-15T03:37:27;98869.88;;;1.59;100.00
8398;BME280;4236;54.504;9.588;2024-01-15T03:39:55;98853.56;;;1.63;100.00
8398;BME280;4236;54.504;9.588;2024-01-15T03:42:23;98856.19;;;1.63;100.00
8398;BME280;4236;54.504;9.588;2024-01-15T03:44:51;98848.13;;;1.65;100.00
8398;BME280;4236;54.504;9.588;2024-01-15T03:47:18;98854.19;;;1.65;100.00
8398;BME280;4236;54.504;9.588;2024-01-15T03:49:48;98870.94;;;1.64;100.00
8398;BME280;4236;54.504;9.588;2024-01-15T03:52:16;98871.75;;;1.65;100.00
8398;BME280;4236;54.504;9.588;2024-01-15T03:54:43;98864.44;;;1.60;100.00
8398;BME280;4236;54.504;9.588;2024-01-15T03:57:11;98877.22;;;1.63;100.00
8398;BME280;4236;54.504;9.588;2024-01-15T03:59:40;98872.59;;;1.65;100.00
8398;BME280;4236;54.504;9.588;2024-01-15T04:02:08;98880.66;;;1.64;100.00
8398;BME280;4236;54.504;9.588;2024-01-15T04:04:35;98891.78;;;1.66;100.00
8398;BME280;4236;54.504;9.588;2024-01-15T04:07:04;98878.81;;;1.64;100.00
8398;BME280;4236;54.504;9.588;2024-01-15T04:09:32;98879.47;;;1.66;100.00
8398;BME280;4236;54.504;9.588;2024-01-15T04:12:00;98890.81;;;1.67;100.00
8398;BME280;4236;54.504;9.588;2024-01-15T04:14:28;98895.41;;;1.65;100.00
8398;BME280;4236;54.504;9.588;2024-01-15T04:16:56;98910.34;;;1.64;100.00
8398;BME280;4236;54.504;9.588;2024-01-15T04:19:23;98903.28;;;1.65;100.00
8398;BME280;4236;54.504;9.588;2024-01-15T04:21:51;98910.19;;;1.66;100.00
8398;BME280;4236;54.504;9.588;2024-01-15T04:24:20;98916.25;;;1.66;100.00
8398;BME280;4236;54.504;9.588;2024-01-15T04:26:48;98912.63;;;1.67;100.00
8398;BME280;4236;54.504;9.588;2024-01-15T04:29:15;98921.16;;;1.70;100.00
8398;BME280;4236;54.504;9.588;2024-01-15T04:31:43;98906.63;;;1.74;100.00
8398;BME280;4236;54.504;9.588;2024-01-15T04:34:11;98912.06;;;1.72;100.00
8398;BME280;4236;54.504;9.588;2024-01-15T04:36:39;98914.13;;;1.77;100.00
8398;BME280;4236;54.504;9.588;2024-01-15T04:39:07;98912.34;;;1.77;100.00
8398;BME280;4236;54.504;9.588;2024-01-15T04:41:37;98922.47;;;1.80;100.00
8398;BME280;4236;54.504;9.588;2024-01-15T04:44:04;98914.78;;;1.79;100.00
8398;BME280;4236;54.504;9.588;2024-01-15T04:46:32;98922.66;;;1.79;100.00
8398;BME280;4236;54.504;9.588;2024-01-15T04:49:00;98920.41;;;1.76;100.00
8398;BME280;4236;54.504;9.588;2024-01-15T04:51:29;98918.59;;;1.76;100.00
8398;BME280;4236;54.504;9.588;2024-01-15T04:53:57;98919.41;;;1.77;100.00
8398;BME280;4236;54.504;9.588;2024-01-15T04:56:24;98933.56;;;1.76;100.00
8398;BME280;4236;54.504;9.588;2024-01-15T04:58:53;98934.38;;;1.76;100.00
8398;BME280;4236;54.504;9.588;2024-01-15T05:01:21;98938.16;;;1.74;100.00
8398;BME280;4236;54.504;9.588;2024-01-15T05:03:49;98929.19;;;1.68;100.00
8398;BME280;4236;54.504;9.588;2024-01-15T05:06:17;98937.28;;;1.66;100.00
8398;BME280;4236;54.504;9.588;2024-01-15T05:08:45;98924.31;;;1.65;100.00
8398;BME280;4236;54.504;9.588;2024-01-15T05:11:12;98936.00;;;1.62;100.00
8398;BME280;4236;54.504;9.588;2024-01-15T05:13:40;98933.56;;;1.61;100.00
8398;BME280;4236;54.504;9.588;2024-01-15T05:16:09;98940.00;;;1.58;100.00
8398;BME280;4236;54.504;9.588;2024-01-15T05:18:37;98933.28;;;1.56;100.00
8398;BME280;4236;54.504;9.588;2024-01-15T05:21:05;98950.06;;;1.55;100.00
8398;BME280;4236;54.504;9.588;2024-01-15T05:23:32;98946.16;;;1.51;100.00
8398;BME280;4236;54.504;9.588;2024-01-15T05:26:00;98951.16;;;1.46;100.00
8398;BME280;4236;54.504;9.588;2024-01-15T05:28:28;98960.84;;;1.45;100.00
8398;BME280;4236;54.504;9.588;2024-01-15T05:30:56;98963.84;;;1.42;100.00
8398;BME280;4236;54.504;9.588;2024-01-15T05:33:25;98961.56;;;1.39;100.00
8398;BME280;4236;54.504;9.588;2024-01-15T05:35:53;98959.31;;;1.36;100.00
8398;BME280;4236;54.504;9.588;2024-01-15T05:38:21;98961.47;;;1.33;100.00
8398;BME280;4236;54.504;9.588;2024-01-15T05:40:48;98964.28;;;1.31;100.00
8398;BME280;4236;54.504;9.588;2024-01-15T05:43:16;98959.22;;;1.30;100.00
8398;BME280;4236;54.504;9.588;2024-01-15T05:45:44;98954.50;;;1.25;100.00
8398;BME280;4236;54.504;9.588;2024-01-15T05:48:12;98962.38;;;1.25;100.00
8398;BME280;4236;54.504;9.588;2024-01-15T05:50:41;98957.31;;;1.24;100.00
8398;BME280;4236;54.504;9.588;2024-01-15T05:53:09;98963.09;;;1.19;100.00
8398;BME280;4236;54.504;9.588;2024-01-15T05:55:37;98947.88;;;1.15;100.00
8398;BME280;4236;54.504;9.588;2024-01-15T05:58:05;98949.69;;;1.14;100.00
8398;BME280;4236;54.504;9.588;2024-01-15T06:00:32;98964.19;;;1.10;100.00
8398;BME280;4236;54.504;9.588;2024-01-15T06:03:02;98958.63;;;1.05;100.00
8398;BME280;4236;54.504;9.588;2024-01-15T06:05:29;98961.44;;;1.03;100.00
8398;BME280;4236;54.504;9.588;2024-01-15T06:07:59;98962.63;;;1.01;100.00
8398;BME280;4236;54.504;9.588;2024-01-15T06:10:26;98968.59;;;0.95;100.00
8398;BME280;4236;54.504;9.588;2024-01-15T06:12:54;98973.19;;;0.93;100.00
8398;BME280;4236;54.504;9.588;2024-01-15T06:15:21;98979.25;;;0.93;100.00
8398;BME280;4236;54.504;9.588;2024-01-15T06:17:49;98994.66;;;0.96;100.00
8398;BME280;4236;54.504;9.588;2024-01-15T06:20:17;98989.28;;;0.90;100.00
8398;BME280;4236;54.504;9.588;2024-01-15T06:22:45;98986.66;;;0.90;100.00
8398;BME280;4236;54.504;9.588;2024-01-15T06:25:14;98982.94;;;0.84;100.00
8398;BME280;4236;54.504;9.588;2024-01-15T06:27:41;98977.22;;;0.81;100.00
8398;BME280;4236;54.504;9.588;2024-01-15T06:30:10;98986.47;;;0.77;100.00
8398;BME280;4236;54.504;9.588;2024-01-15T06:32:39;98996.69;;;0.72;100.00
8398;BME280;4236;54.504;9.588;2024-01-15T06:35:07;98996.03;;;0.70;100.00
8398;BME280;4236;54.504;9.588;2024-01-15T06:37:37;99001.00;;;0.65;100.00
8398;BME280;4236;54.504;9.588;2024-01-15T06:40:06;98996.91;;;0.62;100.00
8398;BME280;4236;54.504;9.588;2024-01-15T06:42:35;98994.81;;;0.57;100.00
8398;BME280;4236;54.504;9.588;2024-01-15T06:45:04;98993.53;;;0.53;100.00
8398;BME280;4236;54.504;9.588;2024-01-15T06:47:32;99007.78;;;0.51;100.00
8398;BME280;4236;54.504;9.588;2024-01-15T06:50:00;99007.97;;;0.49;100.00
8398;BME280;4236;54.504;9.588;2024-01-15T06:52:28;99005.06;;;0.44;100.00
8398;BME280;4236;54.504;9.588;2024-01-15T06:54:55;99018.34;;;0.43;100.00
8398;BME280;4236;54.504;9.588;2024-01-15T06:57:23;99012.47;;;0.41;100.00
8398;BME280;4236;54.504;9.588;2024-01-15T06:59:52;99027.38;;;0.40;100.00
8398;BME280;4236;54.504;9.588;2024-01-15T07:02:20;99030.81;;;0.41;100.00
8398;BME280;4236;54.504;9.588;2024-01-15T07:04:47;99028.84;;;0.43;100.00
8398;BME280;4236;54.504;9.588;2024-01-15T07:07:15;99027.03;;;0.43;100.00
8398;BME280;4236;54.504;9.588;2024-01-15T07:09:43;99030.13;;;0.47;100.00
8398;BME280;4236;54.504;9.588;2024-01-15T07:12:11;99031.94;;;0.46;100.00
8398;BME280;4236;54.504;9.588;2024-01-15T07:14:38;99033.25;;;0.42;100.00
8398;BME280;4236;54.504;9.588;2024-01-15T07:17:07;99047.72;;;0.38;100.00
8398;BME280;4236;54.504;9.588;2024-01-15T07:19:35;99043.66;;;0.36;100.00
8398;BME280;4236;54.504;9.588;2024-01-15T07:22:03;99056.75;;;0.36;100.00
8398;BME280;4236;54.504;9.588;2024-01-15T07:24:31;99046.75;;;0.31;100.00
8398;BME280;4236;54.504;9.588;2024-01-15T07:27:00;99056.63;;;0.29;100.00
8398;BME280;4236;54.504;9.588;2024-01-15T07:29:28;99059.41;;;0.28;100.00
8398;BME280;4236;54.504;9.588;2024-01-15T07:31:56;99061.19;;;0.27;100.00
8398;BME280;4236;54.504;9.588;2024-01-15T07:34:25;99070.91;;;0.27;100.00
8398;BME280;4236;54.504;9.588;2024-01-15T07:36:53;99068.72;;;0.30;100.00
8398;BME280;4236;54.504;9.588;2024-01-15T07:39:21;99063.31;;;0.32;100.00
8398;BME280;4236;54.504;9.588;2024-01-15T07:41:49;99085.94;;;0.33;100.00
8398;BME280;4236;54.504;9.588;2024-01-15T07:44:17;99083.94;;;0.35;100.00
8398;BME280;4236;54.504;9.588;2024-01-15T07:46:45;99090.84;;;0.36;100.00
8398;BME280;4236;54.504;9.588;2024-01-15T07:49:13;99094.91;;;0.38;100.00
8398;BME280;4236;54.504;9.588;2024-01-15T07:51:42;99086.88;;;0.40;100.00
8398;BME280;4236;54.504;9.588;2024-01-15T07:54:10;99085.69;;;0.42;100.00
8398;BME280;4236;54.504;9.588;2024-01-15T07:56:53;99094.38;;;0.43;100.00
8398;BME280;4236;54.504;9.588;2024-01-15T07:59:21;99103.72;;;0.45;100.00
8398;BME280;4236;54.504;9.588;2024-01-15T08:01:49;99106.19;;;0.47;100.00
8398;BME280;4236;54.504;9.588;2024-01-15T08:04:16;99104.88;;;0.43;100.00
8398;BME280;4236;54.504;9.588;2024-01-15T08:06:46;99112.75;;;0.43;100.00
8398;BME280;4236;54.504;9.588;2024-01-15T08:09:14;99117.16;;;0.42;100.00
8398;BME280;4236;54.504;9.588;2024-01-15T08:11:42;99113.56;;;0.43;100.00
8398;BME280;4236;54.504;9.588;2024-01-15T08:14:11;99129.47;;;0.42;100.00
8398;BME280;4236;54.504;9.588;2024-01-15T08:16:39;99127.31;;;0.45;100.00
8398;BME280;4236;54.504;9.588;2024-01-15T08:19:07;99131.75;;;0.45;100.00
8398;BME280;4236;54.504;9.588;2024-01-15T08:21:35;99130.94;;;0.44;100.00
8398;BME280;4236;54.504;9.588;2024-01-15T08:24:05;99137.16;;;0.43;100.00
8398;BME280;4236;54.504;9.588;2024-01-15T08:26:33;99138.34;;;0.41;100.00
8398;BME280;4236;54.504;9.588;2024-01-15T08:29:00;99145.53;;;0.39;100.00
8398;BME280;4236;54.504;9.588;2024-01-15T08:31:28;99137.50;;;0.40;100.00
8398;BME280;4236;54.504;9.588;2024-01-15T08:33:56;99159.13;;;0.42;100.00
8398;BME280;4236;54.504;9.588;2024-01-15T08:36:25;99164.72;;;0.39;100.00
8398;BME280;4236;54.504;9.588;2024-01-15T08:38:53;99170.63;;;0.41;100.00
8398;BME280;4236;54.504;9.588;2024-01-15T08:41:22;99173.69;;;0.45;100.00
8398;BME280;4236;54.504;9.588;2024-01-15T08:43:51;99179.13;;;0.43;100.00
8398;BME280;4236;54.504;9.588;2024-01-15T08:46:19;99174.84;;;0.42;100.00
8398;BME280;4236;54.504;9.588;2024-01-15T08:48:47;99175.03;;;0.41;100.00
8398;BME280;4236;54.504;9.588;2024-01-15T08:51:15;99176.84;;;0.40;100.00
8398;BME280;4236;54.504;9.588;2024-01-15T08:53:42;99184.56;;;0.34;100.00
8398;BME280;4236;54.504;9.588;2024-01-15T08:56:10;99186.84;;;0.37;100.00
8398;BME280;4236;54.504;9.588;2024-01-15T08:58:39;99184.41;;;0.35;100.00
8398;BME280;4236;54.504;9.588;2024-01-15T09:01:07;99183.56;;;0.43;100.00
8398;BME280;4236;54.504;9.588;2024-01-15T09:03:35;99184.72;;;0.40;100.00
8398;BME280;4236;54.504;9.588;2024-01-15T09:06:03;99187.63;;;0.45;100.00
8398;BME280;4236;54.504;9.588;2024-01-15T09:08:31;99197.16;;;0.46;100.00
8398;BME280;4236;54.504;9.588;2024-01-15T09:10:59;99197.47;;;0.43;100.00
8398;BME280;4236;54.504;9.588;2024-01-15T09:13:29;99198.94;;;0.46;100.00
8398;BME280;4236;54.504;9.588;2024-01-15T09:15:58;99200.75;;;0.53;100.00
8398;BME280;4236;54.504;9.588;2024-01-15T09:18:27;99195.31;;;0.55;100.00
8398;BME280;4236;54.504;9.588;2024-01-15T09:20:56;99200.56;;;0.55;100.00
8398;BME280;4236;54.504;9.588;2024-01-15T09:23:24;99198.22;;;0.60;100.00
8398;BME280;4236;54.504;9.588;2024-01-15T09:25:54;99204.47;;;0.59;100.00
8398;BME280;4236;54.504;9.588;2024-01-15T09:28:22;99211.34;;;0.60;100.00
8398;BME280;4236;54.504;9.588;2024-01-15T09:30:50;99224.97;;;0.55;100.00
8398;BME280;4236;54.504;9.588;2024-01-15T09:33:19;99222.69;;;0.52;100.00
8398;BME280;4236;54.504;9.588;2024-01-15T09:35:46;99224.34;;;0.53;100.00
8398;BME280;4236;54.504;9.588;2024-01-15T09:38:14;99233.00;;;0.54;100.00
8398;BME280;4236;54.504;9.588;2024-01-15T09:40:43;99240.72;;;0.55;100.00
8398;BME280;4236;54.504;9.588;2024-01-15T09:43:13;99234.31;;;0.58;100.00
8398;BME280;4236;54.504;9.588;2024-01-15T09:45:42;99238.59;;;0.59;100.00
8398;BME280;4236;54.504;9.588;2024-01-15T09:48:10;99238.72;;;0.57;100.00
8398;BME280;4236;54.504;9.588;2024-01-15T09:50:40;99253.34;;;0.52;100.00
8398;BME280;4236;54.504;9.588;2024-01-15T09:53:09;99246.78;;;0.56;100.00
8398;BME280;4236;54.504;9.588;2024-01-15T09:55:37;99249.75;;;0.53;100.00
8398;BME280;4236;54.504;9.588;2024-01-15T09:58:05;99251.69;;;0.51;100.00
8398;BME280;4236;54.504;9.588;2024-01-15T10:00:33;99251.53;;;0.52;100.00
8398;BME280;4236;54.504;9.588;2024-01-15T10:03:04;99253.31;;;0.60;100.00
8398;BME280;4236;54.504;9.588;2024-01-15T10:05:32;99252.00;;;0.64;100.00
8398;BME280;4236;54.504;9.588;2024-01-15T10:08:03;99255.94;;;0.60;100.00
8398;BME280;4236;54.504;9.588;2024-01-15T10:10:31;99256.41;;;0.64;100.00
8398;BME280;4236;54.504;9.588;2024-01-15T10:12:59;99267.78;;;0.56;100.00
8398;BME280;4236;54.504;9.588;2024-01-15T10:15:27;99262.53;;;0.56;100.00
8398;BME280;4236;54.504;9.588;2024-01-15T10:17:55;99261.69;;;0.55;100.00
8398;BME280;4236;54.504;9.588;2024-01-15T10:20:23;99258.44;;;0.53;100.00
8398;BME280;4236;54.504;9.588;2024-01-15T10:22:51;99273.16;;;0.54;100.00
8398;BME280;4236;54.504;9.588;2024-01-15T10:25:21;99277.44;;;0.55;100.00
8398;BME280;4236;54.504;9.588;2024-01-15T10:27:59;99279.75;;;0.50;100.00
8398;BME280;4236;54.504;9.588;2024-01-15T10:30:27;99274.00;;;0.55;100.00
8398;BME280;4236;54.504;9.588;2024-01-15T10:32:59;99281.91;;;0.47;100.00
8398;BME280;4236;54.504;9.588;2024-01-15T10:35:29;99282.53;;;0.49;100.00
8398;BME280;4236;54.504;9.588;2024-01-15T10:37:57;99287.97;;;0.47;100.00
8398;BME280;4236;54.504;9.588;2024-01-15T10:40:27;99280.09;;;0.47;100.00
8398;BME280;4236;54.504;9.588;2024-01-15T10:42:56;99291.72;;;0.53;100.00
8398;BME280;4236;54.504;9.588;2024-01-15T10:45:24;99285.31;;;0.55;100.00
8398;BME280;4236;54.504;9.588;2024-01-15T10:47:53;99295.16;;;0.53;100.00
8398;BME280;4236;54.504;9.588;2024-01-15T10:50:25;99300.72;;;0.59;100.00
8398;BME280;4236;54.504;9.588;2024-01-15T10:52:53;99307.13;;;0.56;100.00
8398;BME280;4236;54.504;9.588;2024-01-15T10:55:23;99314.97;;;0.56;100.00
8398;BME280;4236;54.504;9.588;2024-01-15T10:57:53;99304.31;;;0.57;100.00
8398;BME280;4236;54.504;9.588;2024-01-15T11:00:23;99302.69;;;0.57;100.00
8398;BME280;4236;54.504;9.588;2024-01-15T11:02:52;99312.19;;;0.66;100.00
8398;BME280;4236;54.504;9.588;2024-01-15T11:05:22;99317.09;;;0.69;100.00
8398;BME280;4236;54.504;9.588;2024-01-15T11:07:50;99318.56;;;0.71;100.00
8398;BME280;4236;54.504;9.588;2024-01-15T11:10:39;99322.66;;;0.74;100.00
8398;BME280;4236;54.504;9.588;2024-01-15T11:13:10;99330.19;;;0.77;100.00
8398;BME280;4236;54.504;9.588;2024-01-15T11:15:55;99327.22;;;0.80;100.00
8398;BME280;4236;54.504;9.588;2024-01-15T11:18:22;99326.38;;;0.87;100.00
8398;BME280;4236;54.504;9.588;2024-01-15T11:21:22;99323.59;;;0.89;100.00
8398;BME280;4236;54.504;9.588;2024-01-15T11:23:53;99317.66;;;0.95;100.00
8398;BME280;4236;54.504;9.588;2024-01-15T11:26:36;99330.44;;;0.98;100.00
8398;BME280;4236;54.504;9.588;2024-01-15T11:29:07;99327.16;;;0.96;100.00
8398;BME280;4236;54.504;9.588;2024-01-15T11:31:57;99329.97;;;0.94;100.00
8398;BME280;4236;54.504;9.588;2024-01-15T11:34:52;99337.16;;;1.00;100.00
8398;BME280;4236;54.504;9.588;2024-01-15T11:37:20;99335.50;;;0.99;100.00
8398;BME280;4236;54.504;9.588;2024-01-15T11:39:51;99339.94;;;0.99;100.00
8398;BME280;4236;54.504;9.588;2024-01-15T11:42:20;99336.66;;;0.97;100.00
8398;BME280;4236;54.504;9.588;2024-01-15T11:44:50;99334.09;;;0.89;100.00
8398;BME280;4236;54.504;9.588;2024-01-15T11:47:39;99336.72;;;0.89;100.00
8398;BME280;4236;54.504;9.588;2024-01-15T11:50:14;99342.25;;;0.94;100.00
8398;BME280;4236;54.504;9.588;2024-01-15T11:52:46;99343.13;;;0.86;100.00
8398;BME280;4236;54.504;9.588;2024-01-15T11:55:19;99337.88;;;0.86;100.00
8398;BME280;4236;54.504;9.588;2024-01-15T11:57:50;99341.25;;;1.03;100.00
8398;BME280;4236;54.504;9.588;2024-01-15T12:00:21;99347.63;;;1.08;100.00
8398;BME280;4236;54.504;9.588;2024-01-15T12:02:49;99345.44;;;1.20;100.00
8398;BME280;4236;54.504;9.588;2024-01-15T12:05:19;99342.00;;;1.20;100.00
8398;BME280;4236;54.504;9.588;2024-01-15T12:07:48;99343.78;;;1.27;100.00
8398;BME280;4236;54.504;9.588;2024-01-15T12:10:18;99340.75;;;1.38;100.00
8398;BME280;4236;54.504;9.588;2024-01-15T12:12:54;99344.81;;;1.49;100.00
8398;BME280;4236;54.504;9.588;2024-01-15T12:15:27;99340.16;;;1.59;100.00
8398;BME280;4236;54.504;9.588;2024-01-15T12:17:56;99338.88;;;1.55;100.00
8398;BME280;4236;54.504;9.588;2024-01-15T12:20:25;99334.94;;;1.51;100.00
8398;BME280;4236;54.504;9.588;2024-01-15T12:22:53;99339.94;;;1.38;100.00
8398;BME280;4236;54.504;9.588;2024-01-15T12:25:29;99339.97;;;1.30;100.00
8398;BME280;4236;54.504;9.588;2024-01-15T12:27:58;99338.19;;;1.30;100.00
8398;BME280;4236;54.504;9.588;2024-01-15T12:30:28;99345.25;;;1.30;100.00
8398;BME280;4236;54.504;9.588;2024-01-15T12:32:58;99345.53;;;1.35;100.00
8398;BME280;4236;54.504;9.588;2024-01-15T12:35:29;99343.72;;;1.43;100.00
8398;BME280;4236;54.504;9.588;2024-01-15T12:37:56;99349.66;;;1.37;100.00
8398;BME280;4236;54.504;9.588;2024-01-15T12:40:24;99346.50;;;1.42;100.00
8398;BME280;4236;54.504;9.588;2024-01-15T12:42:52;99350.25;;;1.47;100.00
8398;BME280;4236;54.504;9.588;2024-01-15T12:45:20;99351.09;;;1.40;100.00
8398;BME280;4236;54.504;9.588;2024-01-15T12:47:49;99354.56;;;1.32;100.00
8398;BME280;4236;54.504;9.588;2024-01-15T12:50:18;99366.13;;;1.15;100.00
8398;BME280;4236;54.504;9.588;2024-01-15T12:52:47;99369.28;;;1.10;100.00
8398;BME280;4236;54.504;9.588;2024-01-15T12:55:16;99375.34;;;1.11;100.00
8398;BME280;4236;54.504;9.588;2024-01-15T12:57:43;99369.41;;;1.17;100.00
8398;BME280;4236;54.504;9.588;2024-01-15T13:00:13;99366.47;;;1.12;100.00
8398;BME280;4236;54.504;9.588;2024-01-15T13:02:42;99371.41;;;1.15;100.00
8398;BME280;4236;54.504;9.588;2024-01-15T13:05:12;99374.03;;;1.15;100.00
8398;BME280;4236;54.504;9.588;2024-01-15T13:07:41;99374.16;;;1.13;100.00
8398;BME280;4236;54.504;9.588;2024-01-15T13:10:10;99379.09;;;1.17;100.00
8398;BME280;4236;54.504;9.588;2024-01-15T13:12:40;99372.69;;;1.19;100.00
8398;BME280;4236;54.504;9.588;2024-01-15T13:15:08;99375.97;;;1.21;100.00
8398;BME280;4236;54.504;9.588;2024-01-15T13:17:40;99387.09;;;1.23;100.00
8398;BME280;4236;54.504;9.588;2024-01-15T13:20:09;99386.97;;;1.25;100.00
8398;BME280;4236;54.504;9.588;2024-01-15T13:22:39;99385.44;;;1.30;100.00
8398;BME280;4236;54.504;9.588;2024-01-15T13:25:10;99395.78;;;1.32;100.00
8398;BME280;4236;54.504;9.588;2024-01-15T13:27:37;99397.13;;;1.28;100.00
8398;BME280;4236;54.504;9.588;2024-01-15T13:30:08;99400.56;;;1.20;100.00
8398;BME280;4236;54.504;9.588;2024-01-15T13:32:36;99393.56;;;1.13;100.00